sensor_id;sensor_type;location;lat;lon;timestamp;P1;durP1;ratioP1;P2;durP2;ratioP2
65047;SDS011;52089;51.362;-2.384;2022-10-29T00:03:13;12.43;;;2.57;;
65047;SDS011;52089;51.362;-2.384;2022-10-29T00:06:55;9.10;;;1.83;;
65047;SDS011;52089;51.362;-2.384;2022-10-29T00:10:37;10.57;;;2.20;;
65047;SDS011;52089;51.362;-2.384;2022-10-29T00:14:19;11.47;;;2.07;;
65047;SDS011;52089;51.362;-2.384;2022-10-29T00:18:00;15.30;;;2.10;;
65047;SDS011;52089;51.362;-2.384;2022-10-29T00:21:42;8.63;;;1.97;;
65047;SDS011;52089;51.362;-2.384;2022-10-29T00:25:24;10.50;;;2.60;;
65047;SDS011;52089;51.362;-2.384;2022-10-29T00:29:06;13.37;;;2.70;;
65047;SDS011;52089;51.362;-2.384;2022-10-29T00:32:47;14.07;;;2.30;;
65047;SDS011;52089;51.362;-2.384;2022-10-29T00:36:29;18.53;;;2.60;;
65047;SDS011;52089;51.362;-2.384;2022-10-29T00:40:11;9.73;;;2.53;;
65047;SDS011;52089;51.362;-2.384;2022-10-29T00:48:03;8.30;;;1.73;;
65047;SDS011;52089;51.362;-2.384;2022-10-29T00:51:45;16.77;;;1.90;;
65047;SDS011;52089;51.362;-2.384;2022-10-29T00:55:27;11.57;;;2.80;;
65047;SDS011;52089;51.362;-2.384;2022-10-29T00:59:09;13.07;;;2.30;;
65047;SDS011;52089;51.362;-2.384;2022-10-29T01:02:52;8.53;;;1.93;;
65047;SDS011;52089;51.362;-2.384;2022-10-29T01:06:34;8.50;;;1.97;;
65047;SDS011;52089;51.362;-2.384;2022-10-29T01:10:18;12.87;;;3.20;;
65047;SDS011;52089;51.362;-2.384;2022-10-29T01:14:10;9.87;;;2.10;;
65047;SDS011;52089;51.362;-2.384;2022-10-29T01:18:19;10.00;;;1.83;;
65047;SDS011;52089;51.362;-2.384;2022-10-29T01:37:44;13.20;;;2.37;;
65047;SDS011;52089;51.362;-2.384;2022-10-29T01:41:56;11.40;;;2.10;;
65047;SDS011;52089;51.362;-2.384;2022-10-29T01:45:47;9.33;;;2.40;;
65047;SDS011;52089;51.362;-2.384;2022-10-29T01:49:36;10.27;;;3.80;;
65047;SDS011;52089;51.362;-2.384;2022-10-29T01:53:20;14.90;;;3.80;;
65047;SDS011;52089;51.362;-2.384;2022-10-29T01:57:02;12.40;;;3.53;;
65047;SDS011;52089;51.362;-2.384;2022-10-29T02:01:15;6.93;;;2.53;;
65047;SDS011;52089;51.362;-2.384;2022-10-29T02:13:02;9.17;;;3.30;;
65047;SDS011;52089;51.362;-2.384;2022-10-29T02:16:44;14.03;;;3.67;;
65047;SDS011;52089;51.362;-2.384;2022-10-29T02:20:26;8.73;;;3.77;;
65047;SDS011;52089;51.362;-2.384;2022-10-29T02:24:08;16.23;;;4.20;;
65047;SDS011;52089;51.362;-2.384;2022-10-29T02:27:50;12.57;;;4.40;;
65047;SDS011;52089;51.362;-2.384;2022-10-29T02:31:32;14.43;;;4.73;;
65047;SDS011;52089;51.362;-2.384;2022-10-29T02:35:13;14.70;;;5.40;;
65047;SDS011;52089;51.362;-2.384;2022-10-29T02:38:55;17.03;;;5.77;;
65047;SDS011;52089;51.362;-2.384;2022-10-29T02:42:37;13.90;;;5.70;;
65047;SDS011;52089;51.362;-2.384;2022-10-29T02:46:20;13.00;;;5.87;;
65047;SDS011;52089;51.362;-2.384;2022-10-29T02:50:03;10.70;;;5.70;;
65047;SDS011;52089;51.362;-2.384;2022-10-29T02:53:45;12.83;;;5.17;;
65047;SDS011;52089;51.362;-2.384;2022-10-29T02:57:27;13.43;;;5.73;;
65047;SDS011;52089;51.362;-2.384;2022-10-29T03:01:08;22.00;;;6.17;;
65047;SDS011;52089;51.362;-2.384;2022-10-29T03:04:50;9.80;;;5.70;;
65047;SDS011;52089;51.362;-2.384;2022-10-29T03:08:32;16.90;;;6.47;;
65047;SDS011;52089;51.362;-2.384;2022-10-29T03:12:14;9.57;;;5.73;;
65047;SDS011;52089;51.362;-2.384;2022-10-29T03:15:56;14.87;;;7.17;;
65047;SDS011;52089;51.362;-2.384;2022-10-29T03:19:37;10.80;;;6.23;;
65047;SDS011;52089;51.362;-2.384;2022-10-29T03:23:19;12.43;;;6.60;;
65047;SDS011;52089;51.362;-2.384;2022-10-29T03:27:02;11.70;;;7.03;;
65047;SDS011;52089;51.362;-2.384;2022-10-29T03:30:44;15.03;;;7.33;;
65047;SDS011;52089;51.362;-2.384;2022-10-29T03:34:26;17.70;;;7.30;;
65047;SDS011;52089;51.362;-2.384;2022-10-29T03:38:08;17.17;;;6.70;;
65047;SDS011;52089;51.362;-2.384;2022-10-29T03:41:49;6.87;;;5.27;;
65047;SDS011;52089;51.362;-2.384;2022-10-29T03:45:31;9.33;;;6.20;;
65047;SDS011;52089;51.362;-2.384;2022-10-29T03:49:13;9.67;;;5.90;;
65047;SDS011;52089;51.362;-2.384;2022-10-29T03:52:55;12.00;;;6.00;;
65047;SDS011;52089;51.362;-2.384;2022-10-29T03:56:36;11.70;;;6.07;;
65047;SDS011;52089;51.362;-2.384;2022-10-29T04:00:18;11.57;;;5.70;;
65047;SDS011;52089;51.362;-2.384;2022-10-29T04:04:00;7.10;;;4.67;;
65047;SDS011;52089;51.362;-2.384;2022-10-29T04:07:42;8.73;;;5.20;;
65047;SDS011;52089;51.362;-2.384;2022-10-29T04:11:24;6.17;;;3.50;;
65047;SDS011;52089;51.362;-2.384;2022-10-29T04:15:06;9.87;;;3.70;;
65047;SDS011;52089;51.362;-2.384;2022-10-29T04:18:48;6.37;;;2.77;;
65047;SDS011;52089;51.362;-2.384;2022-10-29T04:22:30;6.17;;;2.17;;
65047;SDS011;52089;51.362;-2.384;2022-10-29T04:26:32;7.13;;;2.37;;
65047;SDS011;52089;51.362;-2.384;2022-10-29T04:30:35;4.90;;;2.07;;
65047;SDS011;52089;51.362;-2.384;2022-10-29T04:34:16;8.90;;;2.70;;
65047;SDS011;52089;51.362;-2.384;2022-10-29T04:37:58;8.87;;;2.40;;
65047;SDS011;52089;51.362;-2.384;2022-10-29T04:41:40;7.43;;;3.07;;
65047;SDS011;52089;51.362;-2.384;2022-10-29T04:45:22;7.97;;;2.77;;
65047;SDS011;52089;51.362;-2.384;2022-10-29T04:49:04;8.83;;;3.10;;
65047;SDS011;52089;51.362;-2.384;2022-10-29T04:52:45;9.07;;;2.67;;
65047;SDS011;52089;51.362;-2.384;2022-10-29T04:56:28;7.40;;;3.30;;
65047;SDS011;52089;51.362;-2.384;2022-10-29T05:00:11;9.57;;;3.20;;
65047;SDS011;52089;51.362;-2.384;2022-10-29T05:03:59;8.07;;;3.63;;
65047;SDS011;52089;51.362;-2.384;2022-10-29T05:07:40;8.30;;;3.17;;
65047;SDS011;52089;51.362;-2.384;2022-10-29T05:11:22;6.87;;;3.50;;
65047;SDS011;52089;51.362;-2.384;2022-10-29T05:15:04;8.07;;;3.37;;
65047;SDS011;52089;51.362;-2.384;2022-10-29T05:18:47;11.73;;;4.17;;
65047;SDS011;52089;51.362;-2.384;2022-10-29T05:22:28;13.90;;;4.67;;
65047;SDS011;52089;51.362;-2.384;2022-10-29T05:26:10;13.17;;;5.73;;
65047;SDS011;52089;51.362;-2.384;2022-10-29T05:29:52;13.23;;;6.70;;
65047;SDS011;52089;51.362;-2.384;2022-10-29T05:33:34;15.70;;;7.50;;
65047;SDS011;52089;51.362;-2.384;2022-10-29T05:37:16;16.70;;;9.37;;
65047;SDS011;52089;51.362;-2.384;2022-10-29T05:40:58;14.97;;;9.90;;
65047;SDS011;52089;51.362;-2.384;2022-10-29T05:44:40;21.87;;;12.20;;
65047;SDS011;52089;51.362;-2.384;2022-10-29T05:48:21;24.50;;;12.20;;
65047;SDS011;52089;51.362;-2.384;2022-10-29T05:52:03;25.07;;;13.53;;
65047;SDS011;52089;51.362;-2.384;2022-10-29T05:55:45;25.97;;;14.50;;
65047;SDS011;52089;51.362;-2.384;2022-10-29T05:59:26;30.27;;;14.60;;
65047;SDS011;52089;51.362;-2.384;2022-10-29T06:03:15;24.30;;;14.67;;
65047;SDS011;52089;51.362;-2.384;2022-10-29T06:06:59;27.97;;;14.97;;
65047;SDS011;52089;51.362;-2.384;2022-10-29T06:10:41;24.93;;;14.03;;
65047;SDS011;52089;51.362;-2.384;2022-10-29T06:14:23;22.63;;;13.07;;
65047;SDS011;52089;51.362;-2.384;2022-10-29T06:18:05;23.47;;;13.03;;
65047;SDS011;52089;51.362;-2.384;2022-10-29T06:21:46;26.57;;;13.57;;
65047;SDS011;52089;51.362;-2.384;2022-10-29T06:25:28;23.17;;;12.03;;
65047;SDS011;52089;51.362;-2.384;2022-10-29T06:29:10;23.70;;;12.00;;
65047;SDS011;52089;51.362;-2.384;2022-10-29T06:32:52;27.97;;;12.70;;
65047;SDS011;52089;51.362;-2.384;2022-10-29T06:36:34;23.13;;;11.80;;
65047;SDS011;52089;51.362;-2.384;2022-10-29T06:40:16;27.03;;;12.00;;
65047;SDS011;52089;51.362;-2.384;2022-10-29T06:43:58;20.60;;;10.33;;
65047;SDS011;52089;51.362;-2.384;2022-10-29T06:47:40;27.53;;;11.13;;
65047;SDS011;52089;51.362;-2.384;2022-10-29T06:51:23;18.87;;;10.50;;
65047;SDS011;52089;51.362;-2.384;2022-10-29T06:55:05;18.80;;;10.13;;
65047;SDS011;52089;51.362;-2.384;2022-10-29T06:58:48;19.63;;;10.40;;
65047;SDS011;52089;51.362;-2.384;2022-10-29T07:02:30;20.60;;;9.03;;
65047;SDS011;52089;51.362;-2.384;2022-10-29T07:06:11;19.00;;;7.93;;
65047;SDS011;52089;51.362;-2.384;2022-10-29T07:09:53;20.60;;;7.90;;
65047;SDS011;52089;51.362;-2.384;2022-10-29T07:13:35;15.43;;;6.43;;
65047;SDS011;52089;51.362;-2.384;2022-10-29T07:17:17;15.83;;;6.37;;
65047;SDS011;52089;51.362;-2.384;2022-10-29T07:21:00;15.20;;;5.83;;
65047;SDS011;52089;51.362;-2.384;2022-10-29T07:24:43;18.33;;;6.03;;
65047;SDS011;52089;51.362;-2.384;2022-10-29T07:28:25;18.33;;;6.47;;
65047;SDS011;52089;51.362;-2.384;2022-10-29T07:32:06;17.90;;;5.60;;
65047;SDS011;52089;51.362;-2.384;2022-10-29T07:35:48;14.17;;;5.00;;
65047;SDS011;52089;51.362;-2.384;2022-10-29T07:39:30;15.03;;;5.43;;
65047;SDS011;52089;51.362;-2.384;2022-10-29T07:43:17;16.80;;;5.30;;
65047;SDS011;52089;51.362;-2.384;2022-10-29T07:47:00;17.00;;;4.63;;
65047;SDS011;52089;51.362;-2.384;2022-10-29T07:50:43;20.47;;;5.10;;
65047;SDS011;52089;51.362;-2.384;2022-10-29T07:54:25;14.63;;;4.90;;
65047;SDS011;52089;51.362;-2.384;2022-10-29T07:58:08;16.33;;;4.77;;
65047;SDS011;52089;51.362;-2.384;2022-10-29T08:01:51;14.87;;;4.17;;
65047;SDS011;52089;51.362;-2.384;2022-10-29T08:05:33;13.67;;;4.97;;
65047;SDS011;52089;51.362;-2.384;2022-10-29T08:09:15;14.00;;;4.07;;
65047;SDS011;52089;51.362;-2.384;2022-10-29T08:12:58;13.40;;;4.23;;
65047;SDS011;52089;51.362;-2.384;2022-10-29T08:16:42;17.07;;;4.87;;
65047;SDS011;52089;51.362;-2.384;2022-10-29T08:20:24;18.87;;;5.07;;
65047;SDS011;52089;51.362;-2.384;2022-10-29T08:24:08;14.03;;;5.77;;
65047;SDS011;52089;51.362;-2.384;2022-10-29T08:28:24;19.67;;;4.47;;
65047;SDS011;52089;51.362;-2.384;2022-10-29T08:31:59;13.93;;;4.37;;
65047;SDS011;52089;51.362;-2.384;2022-10-29T08:35:41;14.83;;;4.20;;
65047;SDS011;52089;51.362;-2.384;2022-10-29T08:39:23;14.60;;;4.30;;
65047;SDS011;52089;51.362;-2.384;2022-10-29T08:47:22;13.15;;;4.00;;
65047;SDS011;52089;51.362;-2.384;2022-10-29T08:59:05;16.87;;;3.80;;
65047;SDS011;52089;51.362;-2.384;2022-10-29T09:02:56;14.23;;;3.93;;
65047;SDS011;52089;51.362;-2.384;2022-10-29T09:06:41;14.63;;;5.20;;
65047;SDS011;52089;51.362;-2.384;2022-10-29T09:10:49;11.97;;;4.10;;
65047;SDS011;52089;51.362;-2.384;2022-10-29T09:14:38;12.70;;;3.60;;
65047;SDS011;52089;51.362;-2.384;2022-10-29T09:18:58;18.53;;;3.97;;
65047;SDS011;52089;51.362;-2.384;2022-10-29T09:26:48;12.87;;;3.10;;
65047;SDS011;52089;51.362;-2.384;2022-10-29T09:30:39;12.03;;;3.20;;
65047;SDS011;52089;51.362;-2.384;2022-10-29T09:34:40;11.50;;;3.30;;
65047;SDS011;52089;51.362;-2.384;2022-10-29T09:38:32;12.17;;;3.70;;
65047;SDS011;52089;51.362;-2.384;2022-10-29T09:42:37;14.83;;;3.20;;
65047;SDS011;52089;51.362;-2.384;2022-10-29T09:46:25;15.00;;;3.30;;
65047;SDS011;52089;51.362;-2.384;2022-10-29T09:50:26;13.80;;;2.77;;
65047;SDS011;52089;51.362;-2.384;2022-10-29T09:54:19;17.55;;;3.20;;
65047;SDS011;52089;51.362;-2.384;2022-10-29T09:58:03;13.43;;;2.93;;
65047;SDS011;52089;51.362;-2.384;2022-10-29T10:01:46;16.07;;;3.23;;
65047;SDS011;52089;51.362;-2.384;2022-10-29T10:05:29;12.07;;;3.50;;
65047;SDS011;52089;51.362;-2.384;2022-10-29T10:09:12;13.67;;;2.97;;
65047;SDS011;52089;51.362;-2.384;2022-10-29T10:12:54;14.17;;;6.43;;
65047;SDS011;52089;51.362;-2.384;2022-10-29T10:16:42;13.17;;;3.07;;
65047;SDS011;52089;51.362;-2.384;2022-10-29T10:24:08;13.13;;;3.03;;
65047;SDS011;52089;51.362;-2.384;2022-10-29T10:35:46;11.83;;;2.87;;
65047;SDS011;52089;51.362;-2.384;2022-10-29T10:39:38;11.90;;;2.83;;
65047;SDS011;52089;51.362;-2.384;2022-10-29T10:43:22;10.70;;;2.50;;
65047;SDS011;52089;51.362;-2.384;2022-10-29T10:47:05;13.68;;;3.72;;
65047;SDS011;52089;51.362;-2.384;2022-10-29T10:50:47;8.32;;;2.10;;
65047;SDS011;52089;51.362;-2.384;2022-10-29T10:58:36;11.95;;;2.63;;
65047;SDS011;52089;51.362;-2.384;2022-10-29T11:06:15;9.30;;;2.00;;
65047;SDS011;52089;51.362;-2.384;2022-10-29T11:09:59;10.07;;;3.10;;
65047;SDS011;52089;51.362;-2.384;2022-10-29T11:13:45;13.75;;;3.22;;
65047;SDS011;52089;51.362;-2.384;2022-10-29T11:17:49;9.70;;;2.35;;
65047;SDS011;52089;51.362;-2.384;2022-10-29T11:25:42;10.45;;;2.17;;
65047;SDS011;52089;51.362;-2.384;2022-10-29T11:45:09;7.18;;;2.28;;
65047;SDS011;52089;51.362;-2.384;2022-10-29T11:49:18;7.05;;;2.10;;
65047;SDS011;52089;51.362;-2.384;2022-10-29T11:54:07;12.15;;;2.40;;
65047;SDS011;52089;51.362;-2.384;2022-10-29T11:57:51;9.18;;;2.05;;
65047;SDS011;52089;51.362;-2.384;2022-10-29T12:05:44;8.85;;;2.40;;
65047;SDS011;52089;51.362;-2.384;2022-10-29T12:13:27;7.85;;;2.35;;
65047;SDS011;52089;51.362;-2.384;2022-10-29T12:29:04;8.40;;;1.60;;
65047;SDS011;52089;51.362;-2.384;2022-10-29T12:33:10;8.48;;;2.00;;
65047;SDS011;52089;51.362;-2.384;2022-10-29T12:49:43;6.50;;;2.10;;
65047;SDS011;52089;51.362;-2.384;2022-10-29T12:53:42;10.02;;;2.92;;
65047;SDS011;52089;51.362;-2.384;2022-10-29T12:57:45;7.68;;;2.20;;
65047;SDS011;52089;51.362;-2.384;2022-10-29T13:16:57;9.43;;;2.75;;
65047;SDS011;52089;51.362;-2.384;2022-10-29T13:20:41;12.07;;;3.67;;
65047;SDS011;52089;51.362;-2.384;2022-10-29T13:24:26;10.32;;;3.63;;
65047;SDS011;52089;51.362;-2.384;2022-10-29T13:31:54;11.50;;;3.17;;
65047;SDS011;52089;51.362;-2.384;2022-10-29T13:35:40;11.65;;;3.50;;
65047;SDS011;52089;51.362;-2.384;2022-10-29T13:39:22;14.20;;;4.35;;
65047;SDS011;52089;51.362;-2.384;2022-10-29T13:43:09;12.85;;;3.22;;
65047;SDS011;52089;51.362;-2.384;2022-10-29T13:46:59;13.15;;;3.42;;
65047;SDS011;52089;51.362;-2.384;2022-10-29T13:50:46;10.93;;;3.20;;
65047;SDS011;52089;51.362;-2.384;2022-10-29T13:54:53;15.95;;;3.90;;
65047;SDS011;52089;51.362;-2.384;2022-10-29T13:58:41;11.38;;;3.08;;
65047;SDS011;52089;51.362;-2.384;2022-10-29T14:06:22;15.65;;;4.15;;
65047;SDS011;52089;51.362;-2.384;2022-10-29T14:10:19;13.57;;;3.90;;
65047;SDS011;52089;51.362;-2.384;2022-10-29T14:14:13;14.55;;;3.30;;
65047;SDS011;52089;51.362;-2.384;2022-10-29T14:18:23;11.65;;;3.05;;
65047;SDS011;52089;51.362;-2.384;2022-10-29T14:22:22;10.10;;;2.83;;
65047;SDS011;52089;51.362;-2.384;2022-10-29T14:26:15;9.02;;;2.97;;
65047;SDS011;52089;51.362;-2.384;2022-10-29T14:30:10;14.27;;;2.50;;
65047;SDS011;52089;51.362;-2.384;2022-10-29T14:37:38;11.57;;;2.63;;
65047;SDS011;52089;51.362;-2.384;2022-10-29T14:41:23;10.07;;;2.90;;
65047;SDS011;52089;51.362;-2.384;2022-10-29T14:45:15;10.43;;;2.90;;
65047;SDS011;52089;51.362;-2.384;2022-10-29T14:49:00;10.03;;;2.50;;
65047;SDS011;52089;51.362;-2.384;2022-10-29T14:52:59;8.73;;;2.73;;
65047;SDS011;52089;51.362;-2.384;2022-10-29T14:56:46;10.20;;;2.30;;
65047;SDS011;52089;51.362;-2.384;2022-10-29T15:00:30;9.17;;;2.10;;
65047;SDS011;52089;51.362;-2.384;2022-10-29T15:04:17;9.53;;;2.53;;
65047;SDS011;52089;51.362;-2.384;2022-10-29T15:08:05;9.07;;;2.10;;
65047;SDS011;52089;51.362;-2.384;2022-10-29T15:11:57;8.10;;;2.27;;
65047;SDS011;52089;51.362;-2.384;2022-10-29T15:16:05;9.80;;;2.17;;
65047;SDS011;52089;51.362;-2.384;2022-10-29T15:19:53;8.07;;;1.70;;
65047;SDS011;52089;51.362;-2.384;2022-10-29T15:23:42;9.87;;;2.47;;
65047;SDS011;52089;51.362;-2.384;2022-10-29T15:27:25;13.07;;;2.30;;
65047;SDS011;52089;51.362;-2.384;2022-10-29T15:31:10;10.23;;;2.47;;
65047;SDS011;52089;51.362;-2.384;2022-10-29T15:35:01;10.83;;;2.17;;
65047;SDS011;52089;51.362;-2.384;2022-10-29T15:42:33;9.80;;;2.77;;
65047;SDS011;52089;51.362;-2.384;2022-10-29T15:50:08;9.27;;;1.53;;
65047;SDS011;52089;51.362;-2.384;2022-10-29T15:53:53;8.53;;;1.50;;
65047;SDS011;52089;51.362;-2.384;2022-10-29T15:57:36;6.93;;;1.30;;
65047;SDS011;52089;51.362;-2.384;2022-10-29T16:01:18;8.40;;;1.53;;
65047;SDS011;52089;51.362;-2.384;2022-10-29T16:05:00;7.73;;;1.53;;
65047;SDS011;52089;51.362;-2.384;2022-10-29T16:12:30;10.23;;;2.20;;
65047;SDS011;52089;51.362;-2.384;2022-10-29T16:16:12;7.67;;;2.10;;
65047;SDS011;52089;51.362;-2.384;2022-10-29T16:19:57;11.47;;;2.20;;
65047;SDS011;52089;51.362;-2.384;2022-10-29T16:23:39;9.97;;;1.93;;
65047;SDS011;52089;51.362;-2.384;2022-10-29T16:27:21;8.87;;;1.77;;
65047;SDS011;52089;51.362;-2.384;2022-10-29T16:31:03;11.60;;;2.07;;
65047;SDS011;52089;51.362;-2.384;2022-10-29T16:34:54;9.80;;;1.73;;
65047;SDS011;52089;51.362;-2.384;2022-10-29T16:38:36;5.77;;;1.30;;
65047;SDS011;52089;51.362;-2.384;2022-10-29T16:46:10;9.10;;;1.67;;
65047;SDS011;52089;51.362;-2.384;2022-10-29T16:49:53;13.70;;;1.93;;
65047;SDS011;52089;51.362;-2.384;2022-10-29T16:53:35;9.30;;;1.73;;
65047;SDS011;52089;51.362;-2.384;2022-10-29T16:57:17;14.80;;;2.37;;
65047;SDS011;52089;51.362;-2.384;2022-10-29T17:01:05;10.60;;;2.20;;
65047;SDS011;52089;51.362;-2.384;2022-10-29T17:04:49;14.38;;;2.63;;
65047;SDS011;52089;51.362;-2.384;2022-10-29T17:08:31;14.23;;;1.93;;
65047;SDS011;52089;51.362;-2.384;2022-10-29T17:12:14;14.70;;;2.83;;
65047;SDS011;52089;51.362;-2.384;2022-10-29T17:15:55;11.63;;;1.53;;
65047;SDS011;52089;51.362;-2.384;2022-10-29T17:19:37;14.93;;;2.17;;
65047;SDS011;52089;51.362;-2.384;2022-10-29T17:23:19;14.50;;;1.97;;
65047;SDS011;52089;51.362;-2.384;2022-10-29T17:27:01;16.03;;;2.07;;
65047;SDS011;52089;51.362;-2.384;2022-10-29T17:30:42;9.03;;;1.40;;
65047;SDS011;52089;51.362;-2.384;2022-10-29T17:34:24;14.00;;;2.03;;
65047;SDS011;52089;51.362;-2.384;2022-10-29T17:38:06;13.23;;;1.90;;
65047;SDS011;52089;51.362;-2.384;2022-10-29T17:41:48;15.07;;;1.90;;
65047;SDS011;52089;51.362;-2.384;2022-10-29T17:45:30;15.40;;;2.87;;
65047;SDS011;52089;51.362;-2.384;2022-10-29T17:49:12;12.93;;;2.40;;
65047;SDS011;52089;51.362;-2.384;2022-10-29T17:52:54;17.27;;;2.60;;
65047;SDS011;52089;51.362;-2.384;2022-10-29T17:56:38;18.50;;;2.23;;
65047;SDS011;52089;51.362;-2.384;2022-10-29T18:00:20;19.90;;;2.40;;
65047;SDS011;52089;51.362;-2.384;2022-10-29T18:04:05;16.53;;;2.10;;
65047;SDS011;52089;51.362;-2.384;2022-10-29T18:07:46;16.23;;;2.60;;
65047;SDS011;52089;51.362;-2.384;2022-10-29T18:11:28;10.87;;;2.40;;
65047;SDS011;52089;51.362;-2.384;2022-10-29T18:15:10;12.73;;;2.73;;
65047;SDS011;52089;51.362;-2.384;2022-10-29T18:18:53;16.27;;;2.50;;
65047;SDS011;52089;51.362;-2.384;2022-10-29T18:22:43;13.50;;;2.08;;
65047;SDS011;52089;51.362;-2.384;2022-10-29T18:26:31;17.63;;;2.57;;
65047;SDS011;52089;51.362;-2.384;2022-10-29T18:30:15;13.93;;;1.95;;
65047;SDS011;52089;51.362;-2.384;2022-10-29T18:34:03;24.83;;;3.10;;
65047;SDS011;52089;51.362;-2.384;2022-10-29T18:37:47;17.30;;;3.10;;
65047;SDS011;52089;51.362;-2.384;2022-10-29T18:41:29;14.77;;;2.70;;
65047;SDS011;52089;51.362;-2.384;2022-10-29T18:45:11;21.77;;;2.83;;
65047;SDS011;52089;51.362;-2.384;2022-10-29T18:48:53;22.57;;;3.00;;
65047;SDS011;52089;51.362;-2.384;2022-10-29T18:52:35;21.87;;;3.90;;
65047;SDS011;52089;51.362;-2.384;2022-10-29T18:56:18;21.13;;;3.50;;
65047;SDS011;52089;51.362;-2.384;2022-10-29T19:00:02;24.80;;;5.93;;
65047;SDS011;52089;51.362;-2.384;2022-10-29T19:03:48;19.70;;;2.90;;
65047;SDS011;52089;51.362;-2.384;2022-10-29T19:07:35;24.57;;;3.50;;
65047;SDS011;52089;51.362;-2.384;2022-10-29T19:11:18;19.50;;;2.70;;
65047;SDS011;52089;51.362;-2.384;2022-10-29T19:15:02;20.87;;;3.83;;
65047;SDS011;52089;51.362;-2.384;2022-10-29T19:18:44;20.83;;;5.07;;
65047;SDS011;52089;51.362;-2.384;2022-10-29T19:22:26;17.47;;;2.83;;
65047;SDS011;52089;51.362;-2.384;2022-10-29T19:26:14;20.93;;;2.73;;
65047;SDS011;52089;51.362;-2.384;2022-10-29T19:29:57;22.70;;;3.73;;
65047;SDS011;52089;51.362;-2.384;2022-10-29T19:33:39;19.43;;;3.30;;
65047;SDS011;52089;51.362;-2.384;2022-10-29T19:37:22;16.30;;;3.10;;
65047;SDS011;52089;51.362;-2.384;2022-10-29T19:41:03;16.53;;;2.87;;
65047;SDS011;52089;51.362;-2.384;2022-10-29T19:44:45;14.93;;;3.67;;
65047;SDS011;52089;51.362;-2.384;2022-10-29T19:48:34;18.70;;;3.13;;
65047;SDS011;52089;51.362;-2.384;2022-10-29T19:52:16;23.13;;;3.50;;
65047;SDS011;52089;51.362;-2.384;2022-10-29T19:55:58;25.03;;;3.30;;
65047;SDS011;52089;51.362;-2.384;2022-10-29T19:59:40;18.60;;;3.60;;
65047;SDS011;52089;51.362;-2.384;2022-10-29T20:03:21;19.47;;;3.13;;
65047;SDS011;52089;51.362;-2.384;2022-10-29T20:07:03;23.03;;;4.00;;
65047;SDS011;52089;51.362;-2.384;2022-10-29T20:10:52;20.00;;;2.80;;
65047;SDS011;52089;51.362;-2.384;2022-10-29T20:14:35;23.50;;;3.90;;
65047;SDS011;52089;51.362;-2.384;2022-10-29T20:18:17;24.47;;;3.57;;
65047;SDS011;52089;51.362;-2.384;2022-10-29T20:22:00;24.13;;;3.83;;
65047;SDS011;52089;51.362;-2.384;2022-10-29T20:25:41;25.47;;;5.10;;
65047;SDS011;52089;51.362;-2.384;2022-10-29T20:29:23;20.63;;;3.73;;
65047;SDS011;52089;51.362;-2.384;2022-10-29T20:33:05;23.60;;;3.50;;
65047;SDS011;52089;51.362;-2.384;2022-10-29T20:36:47;20.67;;;3.37;;
65047;SDS011;52089;51.362;-2.384;2022-10-29T20:40:29;26.13;;;3.47;;
65047;SDS011;52089;51.362;-2.384;2022-10-29T20:44:11;22.53;;;3.87;;
65047;SDS011;52089;51.362;-2.384;2022-10-29T20:47:52;24.07;;;3.40;;
65047;SDS011;52089;51.362;-2.384;2022-10-29T20:51:35;21.10;;;3.30;;
65047;SDS011;52089;51.362;-2.384;2022-10-29T20:55:17;17.63;;;3.93;;
65047;SDS011;52089;51.362;-2.384;2022-10-29T20:59:00;22.17;;;3.77;;
65047;SDS011;52089;51.362;-2.384;2022-10-29T21:02:42;30.83;;;4.30;;
65047;SDS011;52089;51.362;-2.384;2022-10-29T21:06:24;26.63;;;5.00;;
65047;SDS011;52089;51.362;-2.384;2022-10-29T21:10:06;16.57;;;3.70;;
65047;SDS011;52089;51.362;-2.384;2022-10-29T21:13:48;28.33;;;4.30;;
65047;SDS011;52089;51.362;-2.384;2022-10-29T21:17:31;26.20;;;3.90;;
65047;SDS011;52089;51.362;-2.384;2022-10-29T21:21:14;26.93;;;8.00;;
65047;SDS011;52089;51.362;-2.384;2022-10-29T21:24:56;21.87;;;3.33;;
65047;SDS011;52089;51.362;-2.384;2022-10-29T21:28:38;23.40;;;3.27;;
65047;SDS011;52089;51.362;-2.384;2022-10-29T21:32:20;19.23;;;3.43;;
65047;SDS011;52089;51.362;-2.384;2022-10-29T21:36:02;22.80;;;3.20;;
65047;SDS011;52089;51.362;-2.384;2022-10-29T21:39:44;21.33;;;2.73;;
65047;SDS011;52089;51.362;-2.384;2022-10-29T21:43:26;18.10;;;3.17;;
65047;SDS011;52089;51.362;-2.384;2022-10-29T21:47:08;22.63;;;3.23;;
65047;SDS011;52089;51.362;-2.384;2022-10-29T21:50:56;22.97;;;3.17;;
65047;SDS011;52089;51.362;-2.384;2022-10-29T21:54:42;23.93;;;3.10;;
65047;SDS011;52089;51.362;-2.384;2022-10-29T21:58:24;20.80;;;3.03;;
65047;SDS011;52089;51.362;-2.384;2022-10-29T22:02:06;23.93;;;3.17;;
65047;SDS011;52089;51.362;-2.384;2022-10-29T22:05:48;30.13;;;3.57;;
65047;SDS011;52089;51.362;-2.384;2022-10-29T22:09:30;24.80;;;7.10;;
65047;SDS011;52089;51.362;-2.384;2022-10-29T22:13:12;21.50;;;3.07;;
65047;SDS011;52089;51.362;-2.384;2022-10-29T22:16:54;20.07;;;2.70;;
65047;SDS011;52089;51.362;-2.384;2022-10-29T22:20:37;26.43;;;3.33;;
65047;SDS011;52089;51.362;-2.384;2022-10-29T22:24:19;21.83;;;2.60;;
65047;SDS011;52089;51.362;-2.384;2022-10-29T22:28:01;24.47;;;3.40;;
65047;SDS011;52089;51.362;-2.384;2022-10-29T22:31:43;16.80;;;2.20;;
65047;SDS011;52089;51.362;-2.384;2022-10-29T22:35:25;20.60;;;2.70;;
65047;SDS011;52089;51.362;-2.384;2022-10-29T22:39:07;20.10;;;2.30;;
65047;SDS011;52089;51.362;-2.384;2022-10-29T22:42:48;24.90;;;2.50;;
65047;SDS011;52089;51.362;-2.384;2022-10-29T22:46:30;18.50;;;2.30;;
65047;SDS011;52089;51.362;-2.384;2022-10-29T22:50:12;17.90;;;2.00;;
65047;SDS011;52089;51.362;-2.384;2022-10-29T22:53:54;19.23;;;2.40;;
65047;SDS011;52089;51.362;-2.384;2022-10-29T22:57:36;21.50;;;2.10;;
65047;SDS011;52089;51.362;-2.384;2022-10-29T23:01:18;20.73;;;2.37;;
65047;SDS011;52089;51.362;-2.384;2022-10-29T23:05:02;20.17;;;3.67;;
65047;SDS011;52089;51.362;-2.384;2022-10-29T23:08:44;16.37;;;2.83;;
65047;SDS011;52089;51.362;-2.384;2022-10-29T23:12:28;19.93;;;2.70;;
65047;SDS011;52089;51.362;-2.384;2022-10-29T23:16:10;22.83;;;4.30;;
65047;SDS011;52089;51.362;-2.384;2022-10-29T23:19:52;18.90;;;2.63;;
65047;SDS011;52089;51.362;-2.384;2022-10-29T23:23:36;16.43;;;2.77;;
65047;SDS011;52089;51.362;-2.384;2022-10-29T23:27:20;22.53;;;2.33;;
65047;SDS011;52089;51.362;-2.384;2022-10-29T23:31:02;18.90;;;2.90;;
65047;SDS011;52089;51.362;-2.384;2022-10-29T23:34:45;19.93;;;3.13;;
65047;SDS011;52089;51.362;-2.384;2022-10-29T23:38:27;17.73;;;2.57;;
65047;SDS011;52089;51.362;-2.384;2022-10-29T23:42:09;19.13;;;2.77;;
65047;SDS011;52089;51.362;-2.384;2022-10-29T23:45:50;15.27;;;2.60;;
65047;SDS011;52089;51.362;-2.384;2022-10-29T23:49:32;15.00;;;2.20;;
65047;SDS011;52089;51.362;-2.384;2022-10-29T23:53:14;22.97;;;3.23;;
65047;SDS011;52089;51.362;-2.384;2022-10-29T23:56:56;16.60;;;2.33;;
